createdAt,value
2017-09-07T00:00:32.826Z,52.90
2017-09-07T00:03:06.430Z,52.90
2017-09-07T00:05:40.063Z,52.40
2017-09-07T00:08:13.672Z,52.60
2017-09-07T00:10:47.470Z,52.50
2017-09-07T00:13:21.173Z,52.40
2017-09-07T00:15:54.978Z,52.20
2017-09-07T00:18:28.678Z,52.50
2017-09-07T00:21:02.283Z,52.30
2017-09-07T00:23:36.299Z,52.50
2017-09-07T00:26:09.994Z,52.30
2017-09-07T00:28:43.538Z,52.60
2017-09-07T00:31:17.927Z,52.60
2017-09-07T00:33:52.294Z,52.50
2017-09-07T00:36:25.946Z,52.40
2017-09-07T00:38:59.511Z,52.70
2017-09-07T00:41:33.146Z,52.90
2017-09-07T00:44:07.522Z,52.80
2017-09-07T00:46:41.270Z,52.80
2017-09-07T00:49:14.871Z,53.00
2017-09-07T00:51:48.476Z,52.90
2017-09-07T00:54:22.287Z,52.20
2017-09-07T00:56:56.682Z,52.30
2017-09-07T00:59:30.191Z,52.20
2017-09-07T01:02:04.096Z,52.40
2017-09-07T01:04:37.767Z,52.40
2017-09-07T01:07:11.300Z,52.40
2017-09-07T01:09:44.948Z,52.30
2017-09-07T01:12:18.676Z,52.70
2017-09-07T01:14:52.298Z,53.00
2017-09-07T01:17:25.903Z,52.90
2017-09-07T01:19:59.498Z,52.50
2017-09-07T01:22:33.818Z,52.50
2017-09-07T01:25:07.525Z,52.30
2017-09-07T01:27:41.122Z,52.30
2017-09-07T01:30:14.678Z,52.50
2017-09-07T01:32:48.327Z,52.60
2017-09-07T01:35:22.030Z,52.30
2017-09-07T01:37:56.322Z,52.10
2017-09-07T01:40:29.904Z,52.10
2017-09-07T01:43:03.549Z,52.30
2017-09-07T01:45:37.096Z,52.20
2017-09-07T01:48:22.683Z,52.20
2017-09-07T01:50:56.227Z,52.20
2017-09-07T01:53:30.026Z,52.30
2017-09-07T01:56:03.589Z,52.20
2017-09-07T01:58:37.245Z,52.20
2017-09-07T02:01:10.837Z,52.20
2017-09-07T02:03:44.429Z,52.20
2017-09-07T02:06:18.846Z,52.90
2017-09-07T02:08:52.658Z,52.80
2017-09-07T02:11:26.230Z,53.20
2017-09-07T02:13:59.834Z,53.20
2017-09-07T02:16:33.458Z,53.60
2017-09-07T02:19:07.162Z,53.60
2017-09-07T02:21:40.878Z,53.70
2017-09-07T02:24:14.478Z,53.80
2017-09-07T02:26:48.030Z,53.70
2017-09-07T02:29:21.980Z,53.80
2017-09-07T02:31:55.778Z,53.80
2017-09-07T02:34:30.084Z,53.70
2017-09-07T02:37:03.573Z,53.60
2017-09-07T02:39:37.194Z,53.80
2017-09-07T02:42:10.787Z,53.70
2017-09-07T02:44:44.388Z,53.70
2017-09-07T02:47:17.894Z,53.80
2017-09-07T02:49:51.499Z,54.00
2017-09-07T02:52:25.066Z,54.10
2017-09-07T02:54:58.699Z,54.20
2017-09-07T02:57:32.401Z,54.20
2017-09-07T03:00:05.970Z,54.00
2017-09-07T03:02:39.650Z,54.20
2017-09-07T03:05:13.267Z,54.40
2017-09-07T03:07:47.686Z,54.80
2017-09-07T03:10:21.515Z,54.40
2017-09-07T03:12:55.139Z,54.50
2017-09-07T03:15:28.758Z,54.80
2017-09-07T03:18:02.202Z,54.80
2017-09-07T03:20:35.827Z,54.60
2017-09-07T03:23:09.538Z,54.80
2017-09-07T03:25:43.139Z,54.90
2017-09-07T03:28:16.732Z,54.90
2017-09-07T03:30:50.299Z,55.00
2017-09-07T03:33:24.749Z,55.20
2017-09-07T03:35:59.158Z,55.20
2017-09-07T03:38:32.858Z,55.20
2017-09-07T03:41:07.306Z,55.30
2017-09-07T03:43:40.993Z,55.30
2017-09-07T03:46:14.801Z,55.30
2017-09-07T03:48:48.371Z,55.30
2017-09-07T03:51:22.011Z,55.30
2017-09-07T03:53:55.610Z,55.60
2017-09-07T03:56:29.182Z,55.60
2017-09-07T03:59:02.788Z,55.80
2017-09-07T04:01:37.738Z,55.90
2017-09-07T04:04:11.482Z,55.90
2017-09-07T04:06:45.830Z,55.90
2017-09-07T04:09:20.028Z,55.70
2017-09-07T04:11:53.783Z,56.00
2017-09-07T04:14:27.346Z,56.50
2017-09-07T04:17:00.961Z,56.00
2017-09-07T04:19:34.690Z,56.10
2017-09-07T04:22:08.288Z,56.10
2017-09-07T04:24:41.853Z,56.60
2017-09-07T04:27:15.490Z,56.50
2017-09-07T04:29:49.819Z,56.60
2017-09-07T04:32:23.381Z,56.50
2017-09-07T04:34:57.110Z,56.60
2017-09-07T04:37:30.682Z,56.40
2017-09-07T04:40:04.926Z,56.60
2017-09-07T04:42:38.491Z,56.80
2017-09-07T04:45:12.225Z,56.80
2017-09-07T04:47:46.555Z,57.00
2017-09-07T04:50:20.861Z,57.10
2017-09-07T04:52:54.365Z,57.00
2017-09-07T04:55:27.869Z,57.30
2017-09-07T04:58:01.569Z,57.40
2017-09-07T05:00:35.166Z,57.40
2017-09-07T05:03:08.876Z,57.60
2017-09-07T05:05:42.548Z,57.70
2017-09-07T05:08:16.146Z,57.60
2017-09-07T05:10:50.550Z,57.30
2017-09-07T05:13:24.054Z,57.70
2017-09-07T05:15:57.705Z,57.80
2017-09-07T05:18:31.293Z,57.90
2017-09-07T05:21:04.896Z,57.90
2017-09-07T05:23:39.190Z,58.00
2017-09-07T05:26:12.910Z,58.00
2017-09-07T05:28:46.727Z,57.90
2017-09-07T05:31:20.430Z,58.20
2017-09-07T05:33:54.037Z,58.20
2017-09-07T05:36:27.694Z,58.00
2017-09-07T05:39:01.335Z,58.60
2017-09-07T05:41:34.767Z,58.60
2017-09-07T05:44:08.430Z,58.50
2017-09-07T05:46:42.103Z,58.30
2017-09-07T05:49:15.718Z,58.20
2017-09-07T05:51:49.411Z,58.20
2017-09-07T05:54:23.750Z,58.00
2017-09-07T05:56:57.533Z,57.90
2017-09-07T05:59:31.258Z,58.00
2017-09-07T06:02:04.857Z,57.80
2017-09-07T06:04:38.463Z,57.30
2017-09-07T06:07:12.994Z,57.10
2017-09-07T06:09:46.690Z,57.40
2017-09-07T06:12:20.243Z,57.90
2017-09-07T06:14:53.882Z,58.20
2017-09-07T06:17:27.478Z,58.40
2017-09-07T06:20:01.097Z,58.50
2017-09-07T06:22:34.582Z,58.40
2017-09-07T06:25:09.010Z,58.40
2017-09-07T06:27:43.302Z,58.40
2017-09-07T06:32:57.182Z,58.70
2017-09-07T06:35:30.892Z,58.70
2017-09-07T06:38:04.550Z,59.10
2017-09-07T06:40:38.090Z,58.70
2017-09-07T06:43:12.502Z,58.40
2017-09-07T06:45:46.101Z,58.40
2017-09-07T06:48:19.706Z,58.30
2017-09-07T06:50:53.262Z,57.70
2017-09-07T06:53:26.874Z,57.70
2017-09-07T06:56:00.714Z,57.40
2017-09-07T06:58:34.409Z,57.40
2017-09-07T07:01:07.999Z,57.30
2017-09-07T07:03:41.623Z,57.30
2017-09-07T07:06:15.935Z,57.20
2017-09-07T07:08:49.521Z,57.20
2017-09-07T07:11:23.122Z,57.10
2017-09-07T07:13:56.848Z,57.00
2017-09-07T07:16:30.850Z,57.20
2017-09-07T07:19:04.558Z,56.80
2017-09-07T07:21:38.154Z,56.60
2017-09-07T07:24:11.759Z,56.80
2017-09-07T07:26:45.568Z,57.00
2017-09-07T07:29:19.017Z,56.90
2017-09-07T07:31:53.374Z,57.20
2017-09-07T07:34:26.982Z,57.10
2017-09-07T07:37:00.470Z,57.00
2017-09-07T07:39:34.055Z,57.00
2017-09-07T07:42:07.874Z,56.60
2017-09-07T07:44:41.318Z,56.30
2017-09-07T07:47:15.091Z,56.20
2017-09-07T07:49:48.962Z,56.40
2017-09-07T07:52:22.703Z,56.90
2017-09-07T07:54:56.401Z,57.10
2017-09-07T07:57:29.938Z,56.60
2017-09-07T08:00:03.798Z,56.80
2017-09-07T08:02:37.366Z,57.00
2017-09-07T08:05:11.214Z,56.70
2017-09-07T08:07:44.878Z,56.80
2017-09-07T08:10:18.559Z,56.70
2017-09-07T08:12:52.231Z,56.50
2017-09-07T08:15:26.132Z,56.70
2017-09-07T08:17:59.730Z,56.20
2017-09-07T08:20:33.167Z,56.90
2017-09-07T08:23:07.651Z,56.20
2017-09-07T08:25:41.821Z,56.00
2017-09-07T08:28:15.562Z,55.80
2017-09-07T08:30:49.073Z,56.10
2017-09-07T08:33:22.635Z,56.10
2017-09-07T08:35:56.366Z,56.00
2017-09-07T08:38:29.951Z,55.80
2017-09-07T08:41:03.597Z,55.90
2017-09-07T08:43:37.146Z,55.60
2017-09-07T08:46:10.867Z,55.30
2017-09-07T08:48:44.429Z,55.00
2017-09-07T08:51:18.174Z,54.60
2017-09-07T08:53:52.082Z,54.50
2017-09-07T08:56:26.558Z,53.90
2017-09-07T08:59:00.211Z,53.70
2017-09-07T09:01:34.532Z,53.70
2017-09-07T09:04:09.355Z,53.90
2017-09-07T09:06:43.035Z,53.50
2017-09-07T09:09:16.663Z,53.00
2017-09-07T09:11:51.242Z,53.10
2017-09-07T09:14:24.742Z,53.30
2017-09-07T09:16:58.506Z,52.50
2017-09-07T09:19:32.155Z,52.80
2017-09-07T09:22:06.006Z,52.90
2017-09-07T09:24:39.986Z,52.40
2017-09-07T09:27:13.467Z,51.30
2017-09-07T09:29:47.034Z,50.90
2017-09-07T09:32:20.807Z,51.40
2017-09-07T09:34:54.518Z,51.30
2017-09-07T09:37:28.049Z,50.90
2017-09-07T09:40:01.702Z,51.20
2017-09-07T09:42:36.021Z,51.30
2017-09-07T09:45:09.487Z,51.30
2017-09-07T09:47:43.272Z,51.20
2017-09-07T09:50:17.540Z,51.20
2017-09-07T09:52:51.374Z,50.50
2017-09-07T09:55:24.967Z,50.50
2017-09-07T09:57:58.555Z,50.50
2017-09-07T10:00:32.046Z,50.40
2017-09-07T10:03:05.650Z,50.00
2017-09-07T10:05:39.114Z,50.00
2017-09-07T10:08:12.746Z,50.10
2017-09-07T10:10:47.242Z,49.80
2017-09-07T10:13:20.779Z,49.20
2017-09-07T10:15:54.355Z,48.90
2017-09-07T10:18:28.852Z,49.60
2017-09-07T10:21:02.462Z,49.60
2017-09-07T10:23:36.100Z,49.70
2017-09-07T10:26:09.798Z,49.70
2017-09-07T10:28:43.347Z,50.00
2017-09-07T10:31:17.717Z,50.30
2017-09-07T10:33:51.275Z,50.30
2017-09-07T10:36:24.918Z,50.30
2017-09-07T10:38:59.349Z,50.20
2017-09-07T10:41:33.019Z,50.20
2017-09-07T10:44:07.086Z,50.10
2017-09-07T10:46:40.746Z,50.20
2017-09-07T10:49:15.462Z,49.20
2017-09-07T10:51:49.390Z,49.20
2017-09-07T10:54:22.927Z,49.20
2017-09-07T10:56:56.501Z,49.30
2017-09-07T10:59:30.944Z,49.60
2017-09-07T11:02:04.610Z,49.80
2017-09-07T11:04:38.216Z,49.60
2017-09-07T11:07:11.820Z,49.30
2017-09-07T11:09:45.259Z,49.20
2017-09-07T11:12:19.841Z,48.90
2017-09-07T11:14:54.146Z,48.90
2017-09-07T11:17:27.813Z,48.90
2017-09-07T11:20:01.450Z,48.90
2017-09-07T11:22:34.922Z,47.80
2017-09-07T11:25:08.657Z,47.40
2017-09-07T11:27:44.117Z,47.60
2017-09-07T11:30:17.799Z,47.60
2017-09-07T11:32:52.290Z,47.30
2017-09-07T11:35:26.634Z,47.70
2017-09-07T11:38:00.234Z,47.70
2017-09-07T11:40:33.903Z,47.60
2017-09-07T11:43:07.645Z,47.60
2017-09-07T11:45:41.163Z,47.30
2017-09-07T11:48:14.967Z,47.90
2017-09-07T11:50:48.661Z,47.20
2017-09-07T11:53:22.131Z,47.20
2017-09-07T11:55:55.833Z,47.60
2017-09-07T11:58:29.453Z,47.50
2017-09-07T12:01:03.058Z,47.30
2017-09-07T12:03:36.766Z,47.20
2017-09-07T12:06:10.343Z,47.20
2017-09-07T12:08:43.930Z,47.40
2017-09-07T12:11:17.662Z,46.90
2017-09-07T12:13:51.367Z,46.10
2017-09-07T12:16:25.070Z,45.80
2017-09-07T12:19:00.515Z,45.50
2017-09-07T12:21:34.201Z,45.50
2017-09-07T12:24:07.775Z,45.70
2017-09-07T12:26:42.237Z,46.20
2017-09-07T12:29:15.791Z,46.20
2017-09-07T12:31:49.424Z,46.50
2017-09-07T12:34:22.918Z,46.10
2017-09-07T12:36:56.548Z,46.30
2017-09-07T12:39:30.929Z,46.80
2017-09-07T12:42:04.674Z,46.80
2017-09-07T12:44:38.271Z,47.00
2017-09-07T12:47:11.866Z,47.00
2017-09-07T12:49:45.923Z,47.30
2017-09-07T12:52:19.570Z,47.70
2017-09-07T12:54:53.387Z,47.20
2017-09-07T12:57:28.459Z,47.40
2017-09-07T13:00:02.234Z,47.50
2017-09-07T13:02:36.040Z,47.60
2017-09-07T13:05:16.628Z,47.90
2017-09-07T13:07:51.186Z,47.80
2017-09-07T13:10:24.926Z,47.80
2017-09-07T13:12:58.566Z,47.90
2017-09-07T13:15:35.721Z,47.50
2017-09-07T13:18:09.410Z,47.70
2017-09-07T13:20:43.717Z,47.60
2017-09-07T13:23:18.102Z,47.80
2017-09-07T13:25:51.749Z,47.70
2017-09-07T13:28:25.351Z,48.00
2017-09-07T13:30:59.772Z,47.80
2017-09-07T13:33:33.453Z,47.70
2017-09-07T13:36:07.144Z,47.90
2017-09-07T13:38:41.700Z,47.80
2017-09-07T13:41:15.294Z,47.70
2017-09-07T13:43:48.847Z,47.60
2017-09-07T13:46:22.567Z,47.60
2017-09-07T13:48:57.426Z,47.80
2017-09-07T13:51:31.130Z,47.70
2017-09-07T13:54:04.754Z,47.90
2017-09-07T13:56:38.882Z,47.80
2017-09-07T13:59:13.158Z,48.00
2017-09-07T14:01:46.864Z,48.20
2017-09-07T14:04:20.467Z,48.00
2017-09-07T14:06:54.086Z,48.00
2017-09-07T14:09:28.543Z,47.80
2017-09-07T14:12:02.190Z,47.80
2017-09-07T14:14:35.783Z,47.50
2017-09-07T14:17:09.366Z,47.70
2017-09-07T14:19:42.883Z,47.10
2017-09-07T14:22:16.589Z,47.30
2017-09-07T14:24:50.186Z,46.90
2017-09-07T14:27:24.594Z,47.40
2017-09-07T14:29:58.314Z,47.30
2017-09-07T14:32:32.740Z,47.60
2017-09-07T14:35:06.427Z,47.70
2017-09-07T14:37:40.758Z,48.10
2017-09-07T14:40:14.359Z,48.00
2017-09-07T14:42:48.266Z,47.80
2017-09-07T14:45:21.866Z,47.40
2017-09-07T14:47:56.386Z,47.30
2017-09-07T14:50:29.966Z,47.20
2017-09-07T14:53:03.588Z,47.30
2017-09-07T14:55:37.089Z,47.20
2017-09-07T14:58:10.577Z,47.20
2017-09-07T15:00:44.222Z,46.70
2017-09-07T15:03:18.817Z,46.70
2017-09-07T15:05:52.521Z,46.60
2017-09-07T15:08:26.322Z,46.20
2017-09-07T15:10:59.825Z,46.40
2017-09-07T15:13:33.432Z,46.60
2017-09-07T15:16:07.040Z,47.40
2017-09-07T15:18:40.598Z,47.00
2017-09-07T15:21:14.278Z,47.10
2017-09-07T15:23:47.818Z,47.00
2017-09-07T15:26:21.491Z,47.40
2017-09-07T15:28:55.026Z,47.00
2017-09-07T15:31:29.411Z,47.10
2017-09-07T15:34:02.919Z,47.00
2017-09-07T15:36:36.538Z,46.60
2017-09-07T15:39:09.998Z,47.20
2017-09-07T15:41:45.042Z,47.20
2017-09-07T15:44:18.873Z,47.20
2017-09-07T15:46:53.104Z,47.20
2017-09-07T15:49:26.898Z,47.80
2017-09-07T15:52:01.422Z,47.80
2017-09-07T15:54:35.127Z,48.10
2017-09-07T15:57:08.822Z,47.60
2017-09-07T15:59:42.521Z,47.40
2017-09-07T16:02:16.230Z,47.00
2017-09-07T16:04:49.835Z,47.00
2017-09-07T16:07:24.371Z,46.60
2017-09-07T16:09:58.058Z,47.00
2017-09-07T16:12:31.658Z,47.40
2017-09-07T16:15:05.974Z,46.70
2017-09-07T16:17:39.791Z,46.80
2017-09-07T16:20:14.371Z,47.20
2017-09-07T16:22:48.007Z,46.60
2017-09-07T16:25:21.694Z,47.20
2017-09-07T16:27:56.305Z,47.10
2017-09-07T16:30:29.918Z,47.10
2017-09-07T16:33:04.419Z,47.40
2017-09-07T16:35:38.066Z,47.40
2017-09-07T16:38:12.351Z,47.90
2017-09-07T16:40:46.921Z,47.90
2017-09-07T16:43:20.702Z,47.80
2017-09-07T16:45:54.302Z,48.10
2017-09-07T16:48:28.591Z,48.00
2017-09-07T16:51:03.443Z,48.00
2017-09-07T16:53:37.002Z,48.00
2017-09-07T16:56:10.714Z,48.30
2017-09-07T16:58:44.357Z,48.70
2017-09-07T17:01:18.118Z,48.70
2017-09-07T17:03:51.722Z,49.10
2017-09-07T17:06:25.534Z,49.50
2017-09-07T17:08:59.056Z,49.10
2017-09-07T17:11:32.663Z,49.20
2017-09-07T17:14:06.233Z,49.20
2017-09-07T17:16:40.593Z,49.00
2017-09-07T17:19:14.598Z,49.40
2017-09-07T17:21:49.232Z,49.50
2017-09-07T17:24:22.771Z,49.20
2017-09-07T17:26:56.537Z,49.40
2017-09-07T17:29:31.002Z,49.40
2017-09-07T17:32:04.638Z,49.40
2017-09-07T17:34:38.314Z,49.60
2017-09-07T17:37:12.067Z,49.60
2017-09-07T17:39:45.718Z,49.60
2017-09-07T17:42:19.414Z,49.90
2017-09-07T17:44:53.269Z,49.80
2017-09-07T17:47:26.826Z,50.00
2017-09-07T17:50:01.287Z,49.70
2017-09-07T17:52:35.713Z,50.60
2017-09-07T17:55:09.211Z,50.10
2017-09-07T17:57:42.693Z,50.10
2017-09-07T18:00:16.454Z,50.20
2017-09-07T18:02:50.822Z,50.20
2017-09-07T18:05:24.282Z,50.10
2017-09-07T18:07:57.925Z,50.40
2017-09-07T18:10:32.230Z,50.50
2017-09-07T18:13:05.842Z,50.50
2017-09-07T18:15:39.519Z,50.50
2017-09-07T18:18:13.114Z,50.90
2017-09-07T18:20:47.058Z,51.20
2017-09-07T18:23:20.650Z,51.30
2017-09-07T18:25:54.202Z,51.20
2017-09-07T18:28:28.094Z,51.40
2017-09-07T18:31:02.462Z,51.50
2017-09-07T18:33:36.183Z,51.50
2017-09-07T18:36:10.660Z,51.60
2017-09-07T18:38:44.306Z,51.60
2017-09-07T18:41:18.119Z,51.60
2017-09-07T18:43:51.802Z,51.60
2017-09-07T18:46:25.394Z,51.60
2017-09-07T18:48:59.935Z,51.60
2017-09-07T18:51:33.500Z,51.50
2017-09-07T18:54:07.045Z,51.50
2017-09-07T18:56:40.759Z,51.50
2017-09-07T18:59:14.498Z,51.60
2017-09-07T19:01:48.857Z,51.60
2017-09-07T19:04:23.382Z,51.60
2017-09-07T19:06:56.945Z,51.50
2017-09-07T19:09:30.651Z,51.60
2017-09-07T19:12:04.187Z,51.70
2017-09-07T19:14:38.611Z,51.60
2017-09-07T19:17:12.189Z,51.60
2017-09-07T19:19:46.018Z,51.70
2017-09-07T19:22:20.502Z,51.70
2017-09-07T19:24:54.963Z,52.00
2017-09-07T19:27:28.558Z,52.00
2017-09-07T19:30:02.219Z,52.20
2017-09-07T19:32:35.858Z,52.20
2017-09-07T19:35:09.462Z,52.20
2017-09-07T19:37:43.062Z,52.40
2017-09-07T19:40:16.663Z,52.50
2017-09-07T19:42:50.215Z,52.80
2017-09-07T19:45:24.285Z,52.80
2017-09-07T19:47:58.403Z,52.80
2017-09-07T19:50:32.184Z,52.80
2017-09-07T19:53:05.906Z,53.00
2017-09-07T19:55:39.406Z,53.10
2017-09-07T19:58:13.162Z,53.00
2017-09-07T20:00:46.713Z,53.10
2017-09-07T20:03:20.293Z,53.20
2017-09-07T20:05:53.913Z,53.30
2017-09-07T20:08:27.454Z,53.50
2017-09-07T20:11:01.298Z,53.40
2017-09-07T20:13:34.982Z,53.30
2017-09-07T20:16:08.714Z,53.50
2017-09-07T20:18:42.621Z,53.20
2017-09-07T20:21:17.122Z,53.30
2017-09-07T20:23:50.635Z,53.30
2017-09-07T20:26:24.322Z,53.50
2017-09-07T20:28:57.906Z,53.70
2017-09-07T20:31:31.646Z,53.80
2017-09-07T20:34:05.152Z,54.00
2017-09-07T20:36:38.746Z,54.00
2017-09-07T20:39:13.286Z,54.10
2017-09-07T20:41:47.074Z,54.20
2017-09-07T20:44:21.567Z,54.40
2017-09-07T20:46:55.412Z,54.30
2017-09-07T20:49:29.674Z,54.40
2017-09-07T20:52:03.314Z,54.40
2017-09-07T20:54:36.918Z,54.20
2017-09-07T20:57:10.623Z,54.30
2017-09-07T20:59:44.327Z,54.20
2017-09-07T21:02:18.130Z,54.30
2017-09-07T21:04:51.778Z,54.20
2017-09-07T21:07:25.326Z,54.30
2017-09-07T21:09:58.944Z,54.00
2017-09-07T21:12:32.429Z,54.00
2017-09-07T21:15:06.990Z,54.20
2017-09-07T21:17:40.623Z,54.10
2017-09-07T21:20:15.158Z,54.00
2017-09-07T21:22:48.886Z,54.20
2017-09-07T21:25:22.535Z,54.10
2017-09-07T21:27:56.318Z,54.10
2017-09-07T21:30:29.831Z,53.90
2017-09-07T21:33:03.438Z,54.10
2017-09-07T21:35:36.972Z,54.40
2017-09-07T21:38:10.691Z,54.20
2017-09-07T21:40:44.174Z,54.00
2017-09-07T21:43:17.773Z,54.00
2017-09-07T21:45:51.375Z,53.90
2017-09-07T21:48:24.980Z,54.10
2017-09-07T21:50:58.694Z,53.90
2017-09-07T21:53:32.403Z,53.80
2017-09-07T21:56:10.409Z,54.20
2017-09-07T21:58:44.419Z,54.10
2017-09-07T22:01:18.125Z,54.10
2017-09-07T22:03:51.723Z,54.20
2017-09-07T22:06:25.318Z,54.20
2017-09-07T22:08:58.921Z,54.10
2017-09-07T22:11:32.403Z,54.20
2017-09-07T22:14:06.024Z,54.00
2017-09-07T22:16:39.836Z,54.50
2017-09-07T22:19:13.406Z,54.50
2017-09-07T22:21:47.030Z,54.60
2017-09-07T22:24:21.335Z,54.40
2017-09-07T22:26:54.889Z,54.40
2017-09-07T22:29:28.646Z,54.60
2017-09-07T22:32:02.178Z,54.50
2017-09-07T22:34:36.665Z,54.60
2017-09-07T22:37:10.986Z,54.40
2017-09-07T22:39:44.895Z,54.40
2017-09-07T22:42:19.131Z,54.60
2017-09-07T22:44:52.801Z,54.60
2017-09-07T22:47:26.306Z,54.60
2017-09-07T22:49:59.955Z,54.70
2017-09-07T22:52:34.910Z,54.60
2017-09-07T22:55:08.625Z,54.60
2017-09-07T22:57:42.253Z,54.50
2017-09-07T23:00:15.842Z,54.60
2017-09-07T23:02:49.451Z,54.70
2017-09-07T23:05:23.193Z,54.60
2017-09-07T23:07:57.207Z,54.60
2017-09-07T23:10:31.760Z,54.80
2017-09-07T23:13:05.358Z,54.80
2017-09-07T23:15:39.410Z,54.80
2017-09-07T23:18:13.303Z,55.10
2017-09-07T23:20:47.009Z,55.20
2017-09-07T23:23:22.201Z,55.20
2017-09-07T23:25:55.950Z,55.20
2017-09-07T23:28:29.550Z,55.00
2017-09-07T23:31:03.146Z,55.20
2017-09-07T23:33:36.954Z,55.30
2017-09-07T23:36:10.434Z,55.40
2017-09-07T23:38:44.015Z,55.10
2017-09-07T23:41:17.526Z,55.40
2017-09-07T23:43:51.147Z,55.40
2017-09-07T23:46:24.729Z,55.40
2017-09-07T23:48:58.309Z,55.70
2017-09-07T23:51:32.570Z,55.70
2017-09-07T23:54:06.154Z,55.60
2017-09-07T23:56:39.653Z,55.70
2017-09-07T23:59:13.218Z,55.70
